sensor_id;sensor_type;location;lat;lon;timestamp;P1;durP1;ratioP1;P2;durP2;ratioP2
30247;SDS011;17063;50.892;4.702;2022-07-17T00:02:11;3.63;;;1.40;;
30247;SDS011;17063;50.892;4.702;2022-07-17T00:04:38;7.33;;;1.80;;
30247;SDS011;17063;50.892;4.702;2022-07-17T00:07:05;2.53;;;1.40;;
30247;SDS011;17063;50.892;4.702;2022-07-17T00:09:32;10.00;;;1.90;;
30247;SDS011;17063;50.892;4.702;2022-07-17T00:11:59;5.97;;;1.63;;
30247;SDS011;17063;50.892;4.702;2022-07-17T00:14:26;4.73;;;1.70;;
30247;SDS011;17063;50.892;4.702;2022-07-17T00:16:53;5.13;;;1.40;;
30247;SDS011;17063;50.892;4.702;2022-07-17T00:19:20;3.03;;;1.23;;
30247;SDS011;17063;50.892;4.702;2022-07-17T00:21:50;4.27;;;1.30;;
30247;SDS011;17063;50.892;4.702;2022-07-17T00:24:17;4.00;;;1.60;;
30247;SDS011;17063;50.892;4.702;2022-07-17T00:26:50;7.13;;;1.70;;
30247;SDS011;17063;50.892;4.702;2022-07-17T00:29:18;3.73;;;1.33;;
30247;SDS011;17063;50.892;4.702;2022-07-17T00:31:46;4.03;;;1.37;;
30247;SDS011;17063;50.892;4.702;2022-07-17T00:34:13;9.30;;;1.60;;
30247;SDS011;17063;50.892;4.702;2022-07-17T00:36:40;3.97;;;1.90;;
30247;SDS011;17063;50.892;4.702;2022-07-17T00:39:08;3.07;;;1.37;;
30247;SDS011;17063;50.892;4.702;2022-07-17T00:41:35;11.90;;;2.10;;
30247;SDS011;17063;50.892;4.702;2022-07-17T00:44:06;6.37;;;1.73;;
30247;SDS011;17063;50.892;4.702;2022-07-17T00:46:38;7.07;;;1.77;;
30247;SDS011;17063;50.892;4.702;2022-07-17T00:49:05;6.50;;;1.50;;
30247;SDS011;17063;50.892;4.702;2022-07-17T00:51:33;4.10;;;1.50;;
30247;SDS011;17063;50.892;4.702;2022-07-17T00:54:00;4.17;;;1.40;;
30247;SDS011;17063;50.892;4.702;2022-07-17T00:56:35;5.23;;;1.50;;
30247;SDS011;17063;50.892;4.702;2022-07-17T00:59:03;3.17;;;1.17;;
30247;SDS011;17063;50.892;4.702;2022-07-17T01:01:30;3.13;;;1.73;;
30247;SDS011;17063;50.892;4.702;2022-07-17T01:03:58;2.43;;;1.50;;
30247;SDS011;17063;50.892;4.702;2022-07-17T01:06:25;3.80;;;1.60;;
30247;SDS011;17063;50.892;4.702;2022-07-17T01:08:52;5.03;;;1.70;;
30247;SDS011;17063;50.892;4.702;2022-07-17T01:11:19;3.93;;;1.70;;
30247;SDS011;17063;50.892;4.702;2022-07-17T01:13:46;4.20;;;1.43;;
30247;SDS011;17063;50.892;4.702;2022-07-17T01:16:14;1.60;;;1.50;;
30247;SDS011;17063;50.892;4.702;2022-07-17T01:18:41;5.80;;;1.70;;
30247;SDS011;17063;50.892;4.702;2022-07-17T01:21:09;6.43;;;1.80;;
30247;SDS011;17063;50.892;4.702;2022-07-17T01:23:35;4.37;;;1.93;;
30247;SDS011;17063;50.892;4.702;2022-07-17T01:26:02;4.50;;;1.80;;
30247;SDS011;17063;50.892;4.702;2022-07-17T01:28:29;5.03;;;2.10;;
30247;SDS011;17063;50.892;4.702;2022-07-17T01:30:57;3.50;;;2.00;;
30247;SDS011;17063;50.892;4.702;2022-07-17T01:33:24;7.20;;;2.00;;
30247;SDS011;17063;50.892;4.702;2022-07-17T01:35:51;4.60;;;1.80;;
30247;SDS011;17063;50.892;4.702;2022-07-17T01:38:18;6.47;;;2.13;;
30247;SDS011;17063;50.892;4.702;2022-07-17T01:40:45;5.07;;;1.90;;
30247;SDS011;17063;50.892;4.702;2022-07-17T01:43:11;4.23;;;2.10;;
30247;SDS011;17063;50.892;4.702;2022-07-17T01:45:39;7.27;;;1.90;;
30247;SDS011;17063;50.892;4.702;2022-07-17T01:48:06;5.20;;;1.93;;
30247;SDS011;17063;50.892;4.702;2022-07-17T01:50:33;5.17;;;1.67;;
30247;SDS011;17063;50.892;4.702;2022-07-17T01:53:00;6.50;;;1.83;;
30247;SDS011;17063;50.892;4.702;2022-07-17T01:55:27;7.30;;;2.00;;
30247;SDS011;17063;50.892;4.702;2022-07-17T01:57:54;3.63;;;1.90;;
30247;SDS011;17063;50.892;4.702;2022-07-17T02:00:21;4.90;;;2.00;;
30247;SDS011;17063;50.892;4.702;2022-07-17T02:02:50;6.00;;;2.07;;
30247;SDS011;17063;50.892;4.702;2022-07-17T02:05:17;4.67;;;1.80;;
30247;SDS011;17063;50.892;4.702;2022-07-17T02:07:44;4.17;;;1.87;;
30247;SDS011;17063;50.892;4.702;2022-07-17T02:10:11;5.47;;;1.80;;
30247;SDS011;17063;50.892;4.702;2022-07-17T02:12:42;4.10;;;1.80;;
30247;SDS011;17063;50.892;4.702;2022-07-17T02:15:09;4.37;;;2.47;;
30247;SDS011;17063;50.892;4.702;2022-07-17T02:17:37;6.73;;;1.57;;
30247;SDS011;17063;50.892;4.702;2022-07-17T02:20:04;3.77;;;1.87;;
30247;SDS011;17063;50.892;4.702;2022-07-17T02:22:34;2.87;;;1.70;;
30247;SDS011;17063;50.892;4.702;2022-07-17T02:25:04;5.90;;;2.00;;
30247;SDS011;17063;50.892;4.702;2022-07-17T02:27:32;4.07;;;2.07;;
30247;SDS011;17063;50.892;4.702;2022-07-17T02:30:03;4.03;;;2.07;;
30247;SDS011;17063;50.892;4.702;2022-07-17T02:32:31;10.23;;;1.90;;
30247;SDS011;17063;50.892;4.702;2022-07-17T02:34:57;6.97;;;1.97;;
30247;SDS011;17063;50.892;4.702;2022-07-17T02:37:25;3.80;;;1.60;;
30247;SDS011;17063;50.892;4.702;2022-07-17T02:39:52;2.77;;;1.77;;
30247;SDS011;17063;50.892;4.702;2022-07-17T02:42:22;5.73;;;1.90;;
30247;SDS011;17063;50.892;4.702;2022-07-17T02:44:50;3.13;;;2.00;;
30247;SDS011;17063;50.892;4.702;2022-07-17T02:47:35;6.57;;;2.10;;
30247;SDS011;17063;50.892;4.702;2022-07-17T02:50:03;6.33;;;1.53;;
30247;SDS011;17063;50.892;4.702;2022-07-17T02:52:32;3.50;;;1.80;;
30247;SDS011;17063;50.892;4.702;2022-07-17T02:54:59;4.50;;;1.60;;
30247;SDS011;17063;50.892;4.702;2022-07-17T02:57:26;3.87;;;1.90;;
30247;SDS011;17063;50.892;4.702;2022-07-17T02:59:53;5.33;;;2.10;;
30247;SDS011;17063;50.892;4.702;2022-07-17T03:02:20;4.43;;;2.07;;
30247;SDS011;17063;50.892;4.702;2022-07-17T03:04:46;7.10;;;2.37;;
30247;SDS011;17063;50.892;4.702;2022-07-17T03:07:13;4.57;;;1.90;;
30247;SDS011;17063;50.892;4.702;2022-07-17T03:09:40;2.50;;;1.77;;
30247;SDS011;17063;50.892;4.702;2022-07-17T03:12:07;4.57;;;2.10;;
30247;SDS011;17063;50.892;4.702;2022-07-17T03:14:33;5.60;;;2.20;;
30247;SDS011;17063;50.892;4.702;2022-07-17T03:17:01;5.67;;;2.27;;
30247;SDS011;17063;50.892;4.702;2022-07-17T03:19:29;4.73;;;1.90;;
30247;SDS011;17063;50.892;4.702;2022-07-17T03:21:55;5.53;;;2.00;;
30247;SDS011;17063;50.892;4.702;2022-07-17T03:24:22;4.63;;;2.23;;
30247;SDS011;17063;50.892;4.702;2022-07-17T03:26:49;7.33;;;2.20;;
30247;SDS011;17063;50.892;4.702;2022-07-17T03:29:16;4.67;;;2.07;;
30247;SDS011;17063;50.892;4.702;2022-07-17T03:31:44;7.90;;;2.67;;
30247;SDS011;17063;50.892;4.702;2022-07-17T03:34:12;6.77;;;2.80;;
30247;SDS011;17063;50.892;4.702;2022-07-17T03:36:39;6.33;;;2.50;;
30247;SDS011;17063;50.892;4.702;2022-07-17T03:39:06;5.47;;;2.00;;
30247;SDS011;17063;50.892;4.702;2022-07-17T03:41:33;3.27;;;2.10;;
30247;SDS011;17063;50.892;4.702;2022-07-17T03:44:00;7.07;;;1.80;;
30247;SDS011;17063;50.892;4.702;2022-07-17T03:46:27;6.07;;;2.30;;
30247;SDS011;17063;50.892;4.702;2022-07-17T03:48:54;3.43;;;1.70;;
30247;SDS011;17063;50.892;4.702;2022-07-17T03:51:24;1.83;;;1.50;;
30247;SDS011;17063;50.892;4.702;2022-07-17T03:53:51;8.03;;;2.00;;
30247;SDS011;17063;50.892;4.702;2022-07-17T03:56:19;5.97;;;2.23;;
30247;SDS011;17063;50.892;4.702;2022-07-17T03:58:46;6.60;;;2.10;;
30247;SDS011;17063;50.892;4.702;2022-07-17T04:01:13;4.23;;;1.90;;
30247;SDS011;17063;50.892;4.702;2022-07-17T04:03:40;5.07;;;2.07;;
30247;SDS011;17063;50.892;4.702;2022-07-17T04:06:07;3.43;;;2.00;;
30247;SDS011;17063;50.892;4.702;2022-07-17T04:08:34;3.40;;;1.83;;
30247;SDS011;17063;50.892;4.702;2022-07-17T04:11:01;5.00;;;1.97;;
30247;SDS011;17063;50.892;4.702;2022-07-17T04:13:35;6.40;;;1.83;;
30247;SDS011;17063;50.892;4.702;2022-07-17T04:16:02;4.93;;;1.97;;
30247;SDS011;17063;50.892;4.702;2022-07-17T04:18:31;7.57;;;1.90;;
30247;SDS011;17063;50.892;4.702;2022-07-17T04:21:02;5.37;;;1.77;;
30247;SDS011;17063;50.892;4.702;2022-07-17T04:23:30;4.73;;;2.13;;
30247;SDS011;17063;50.892;4.702;2022-07-17T04:25:58;5.07;;;1.90;;
30247;SDS011;17063;50.892;4.702;2022-07-17T04:28:24;5.53;;;2.13;;
30247;SDS011;17063;50.892;4.702;2022-07-17T04:30:51;5.57;;;2.10;;
30247;SDS011;17063;50.892;4.702;2022-07-17T04:33:18;6.67;;;2.17;;
30247;SDS011;17063;50.892;4.702;2022-07-17T04:35:45;2.73;;;1.90;;
30247;SDS011;17063;50.892;4.702;2022-07-17T04:38:13;5.47;;;2.60;;
30247;SDS011;17063;50.892;4.702;2022-07-17T04:40:40;3.67;;;2.30;;
30247;SDS011;17063;50.892;4.702;2022-07-17T04:43:07;6.10;;;2.33;;
30247;SDS011;17063;50.892;4.702;2022-07-17T04:45:34;4.37;;;2.47;;
30247;SDS011;17063;50.892;4.702;2022-07-17T04:48:01;7.20;;;2.30;;
30247;SDS011;17063;50.892;4.702;2022-07-17T04:50:28;8.43;;;2.63;;
30247;SDS011;17063;50.892;4.702;2022-07-17T04:52:55;5.47;;;2.47;;
30247;SDS011;17063;50.892;4.702;2022-07-17T04:55:23;4.47;;;2.30;;
30247;SDS011;17063;50.892;4.702;2022-07-17T04:57:50;6.17;;;2.60;;
30247;SDS011;17063;50.892;4.702;2022-07-17T05:00:17;3.67;;;2.27;;
30247;SDS011;17063;50.892;4.702;2022-07-17T05:02:43;6.17;;;2.43;;
30247;SDS011;17063;50.892;4.702;2022-07-17T05:05:10;4.63;;;2.40;;
30247;SDS011;17063;50.892;4.702;2022-07-17T05:07:37;6.60;;;2.63;;
30247;SDS011;17063;50.892;4.702;2022-07-17T05:10:04;3.93;;;2.20;;
30247;SDS011;17063;50.892;4.702;2022-07-17T05:12:31;8.23;;;2.53;;
30247;SDS011;17063;50.892;4.702;2022-07-17T05:14:58;6.87;;;2.63;;
30247;SDS011;17063;50.892;4.702;2022-07-17T05:17:26;7.30;;;2.60;;
30247;SDS011;17063;50.892;4.702;2022-07-17T05:19:52;7.03;;;2.30;;
30247;SDS011;17063;50.892;4.702;2022-07-17T05:22:19;4.80;;;2.47;;
30247;SDS011;17063;50.892;4.702;2022-07-17T05:24:46;3.43;;;1.90;;
30247;SDS011;17063;50.892;4.702;2022-07-17T05:27:13;6.10;;;2.20;;
30247;SDS011;17063;50.892;4.702;2022-07-17T05:29:40;3.17;;;1.90;;
30247;SDS011;17063;50.892;4.702;2022-07-17T05:32:06;6.93;;;2.33;;
30247;SDS011;17063;50.892;4.702;2022-07-17T05:34:33;5.23;;;2.07;;
30247;SDS011;17063;50.892;4.702;2022-07-17T05:37:00;7.93;;;1.93;;
30247;SDS011;17063;50.892;4.702;2022-07-17T05:39:27;6.13;;;2.10;;
30247;SDS011;17063;50.892;4.702;2022-07-17T05:41:54;4.57;;;2.00;;
30247;SDS011;17063;50.892;4.702;2022-07-17T05:44:20;5.33;;;2.20;;
30247;SDS011;17063;50.892;4.702;2022-07-17T05:46:47;4.20;;;2.10;;
30247;SDS011;17063;50.892;4.702;2022-07-17T05:49:14;6.73;;;1.90;;
30247;SDS011;17063;50.892;4.702;2022-07-17T05:51:41;8.37;;;1.80;;
30247;SDS011;17063;50.892;4.702;2022-07-17T05:54:08;5.97;;;2.00;;
30247;SDS011;17063;50.892;4.702;2022-07-17T05:56:34;6.43;;;1.90;;
30247;SDS011;17063;50.892;4.702;2022-07-17T05:59:02;5.20;;;1.70;;
30247;SDS011;17063;50.892;4.702;2022-07-17T06:01:29;2.70;;;1.53;;
30247;SDS011;17063;50.892;4.702;2022-07-17T06:03:56;2.97;;;1.57;;
30247;SDS011;17063;50.892;4.702;2022-07-17T06:06:23;7.73;;;2.07;;
30247;SDS011;17063;50.892;4.702;2022-07-17T06:08:50;11.37;;;2.10;;
30247;SDS011;17063;50.892;4.702;2022-07-17T06:11:16;5.10;;;1.70;;
30247;SDS011;17063;50.892;4.702;2022-07-17T06:13:49;5.67;;;2.20;;
30247;SDS011;17063;50.892;4.702;2022-07-17T06:16:15;4.07;;;1.60;;
30247;SDS011;17063;50.892;4.702;2022-07-17T06:18:42;3.50;;;1.40;;
30247;SDS011;17063;50.892;4.702;2022-07-17T06:21:10;4.87;;;1.77;;
30247;SDS011;17063;50.892;4.702;2022-07-17T06:23:37;4.30;;;1.50;;
30247;SDS011;17063;50.892;4.702;2022-07-17T06:26:04;4.43;;;1.80;;
30247;SDS011;17063;50.892;4.702;2022-07-17T06:28:31;5.07;;;1.70;;
30247;SDS011;17063;50.892;4.702;2022-07-17T06:30:58;2.80;;;1.77;;
30247;SDS011;17063;50.892;4.702;2022-07-17T06:33:25;7.27;;;1.73;;
30247;SDS011;17063;50.892;4.702;2022-07-17T06:35:52;6.83;;;2.10;;
30247;SDS011;17063;50.892;4.702;2022-07-17T06:38:18;4.80;;;1.60;;
30247;SDS011;17063;50.892;4.702;2022-07-17T06:40:45;5.03;;;1.60;;
30247;SDS011;17063;50.892;4.702;2022-07-17T06:43:12;6.43;;;1.90;;
30247;SDS011;17063;50.892;4.702;2022-07-17T06:45:39;4.60;;;1.83;;
30247;SDS011;17063;50.892;4.702;2022-07-17T06:48:06;4.93;;;1.80;;
30247;SDS011;17063;50.892;4.702;2022-07-17T06:50:33;10.27;;;2.13;;
30247;SDS011;17063;50.892;4.702;2022-07-17T06:53:00;4.23;;;1.53;;
30247;SDS011;17063;50.892;4.702;2022-07-17T06:55:26;7.83;;;1.90;;
30247;SDS011;17063;50.892;4.702;2022-07-17T06:57:53;5.73;;;1.67;;
30247;SDS011;17063;50.892;4.702;2022-07-17T07:00:20;7.97;;;2.20;;
30247;SDS011;17063;50.892;4.702;2022-07-17T07:02:47;3.67;;;1.57;;
30247;SDS011;17063;50.892;4.702;2022-07-17T07:05:14;6.13;;;1.80;;
30247;SDS011;17063;50.892;4.702;2022-07-17T07:07:41;6.80;;;1.50;;
30247;SDS011;17063;50.892;4.702;2022-07-17T07:10:08;3.37;;;1.43;;
30247;SDS011;17063;50.892;4.702;2022-07-17T07:12:35;4.93;;;1.70;;
30247;SDS011;17063;50.892;4.702;2022-07-17T07:15:02;3.17;;;1.60;;
30247;SDS011;17063;50.892;4.702;2022-07-17T07:17:37;3.30;;;1.50;;
30247;SDS011;17063;50.892;4.702;2022-07-17T07:20:04;5.43;;;1.60;;
30247;SDS011;17063;50.892;4.702;2022-07-17T07:22:32;3.53;;;1.50;;
30247;SDS011;17063;50.892;4.702;2022-07-17T07:24:59;4.63;;;1.50;;
30247;SDS011;17063;50.892;4.702;2022-07-17T07:27:26;7.40;;;1.90;;
30247;SDS011;17063;50.892;4.702;2022-07-17T07:29:53;4.73;;;2.10;;
30247;SDS011;17063;50.892;4.702;2022-07-17T07:32:20;4.50;;;1.83;;
30247;SDS011;17063;50.892;4.702;2022-07-17T07:34:46;8.50;;;1.70;;
30247;SDS011;17063;50.892;4.702;2022-07-17T07:37:13;4.90;;;1.90;;
30247;SDS011;17063;50.892;4.702;2022-07-17T07:39:40;7.90;;;1.67;;
30247;SDS011;17063;50.892;4.702;2022-07-17T07:42:07;3.93;;;1.50;;
30247;SDS011;17063;50.892;4.702;2022-07-17T07:44:33;4.90;;;1.50;;
30247;SDS011;17063;50.892;4.702;2022-07-17T07:47:04;4.13;;;1.63;;
30247;SDS011;17063;50.892;4.702;2022-07-17T07:49:31;4.63;;;1.90;;
30247;SDS011;17063;50.892;4.702;2022-07-17T07:52:05;6.97;;;2.53;;
30247;SDS011;17063;50.892;4.702;2022-07-17T07:54:32;4.90;;;2.17;;
30247;SDS011;17063;50.892;4.702;2022-07-17T07:57:01;4.70;;;2.10;;
30247;SDS011;17063;50.892;4.702;2022-07-17T07:59:30;4.87;;;2.00;;
30247;SDS011;17063;50.892;4.702;2022-07-17T08:02:00;3.53;;;2.03;;
30247;SDS011;17063;50.892;4.702;2022-07-17T08:04:27;4.43;;;2.00;;
30247;SDS011;17063;50.892;4.702;2022-07-17T08:06:54;5.20;;;1.97;;
30247;SDS011;17063;50.892;4.702;2022-07-17T08:09:21;4.43;;;1.63;;
30247;SDS011;17063;50.892;4.702;2022-07-17T08:11:48;4.83;;;1.87;;
30247;SDS011;17063;50.892;4.702;2022-07-17T08:14:15;5.20;;;2.07;;
30247;SDS011;17063;50.892;4.702;2022-07-17T08:16:43;6.83;;;2.00;;
30247;SDS011;17063;50.892;4.702;2022-07-17T08:19:10;5.83;;;2.30;;
30247;SDS011;17063;50.892;4.702;2022-07-17T08:21:37;4.23;;;1.73;;
30247;SDS011;17063;50.892;4.702;2022-07-17T08:24:06;5.20;;;1.73;;
30247;SDS011;17063;50.892;4.702;2022-07-17T08:26:33;4.27;;;1.80;;
30247;SDS011;17063;50.892;4.702;2022-07-17T08:29:01;5.73;;;1.90;;
30247;SDS011;17063;50.892;4.702;2022-07-17T08:31:28;6.43;;;1.30;;
30247;SDS011;17063;50.892;4.702;2022-07-17T08:33:55;4.43;;;1.60;;
30247;SDS011;17063;50.892;4.702;2022-07-17T08:36:21;6.83;;;1.60;;
30247;SDS011;17063;50.892;4.702;2022-07-17T08:38:48;3.53;;;1.40;;
30247;SDS011;17063;50.892;4.702;2022-07-17T08:41:15;3.30;;;1.50;;
30247;SDS011;17063;50.892;4.702;2022-07-17T08:43:43;6.43;;;1.70;;
30247;SDS011;17063;50.892;4.702;2022-07-17T08:46:10;4.47;;;1.70;;
30247;SDS011;17063;50.892;4.702;2022-07-17T08:48:41;5.63;;;1.50;;
30247;SDS011;17063;50.892;4.702;2022-07-17T08:51:12;10.50;;;1.70;;
30247;SDS011;17063;50.892;4.702;2022-07-17T08:53:43;10.03;;;2.30;;
30247;SDS011;17063;50.892;4.702;2022-07-17T08:56:10;7.20;;;1.90;;
30247;SDS011;17063;50.892;4.702;2022-07-17T08:58:37;4.80;;;1.53;;
30247;SDS011;17063;50.892;4.702;2022-07-17T09:01:04;8.23;;;1.80;;
30247;SDS011;17063;50.892;4.702;2022-07-17T09:03:32;4.73;;;1.47;;
30247;SDS011;17063;50.892;4.702;2022-07-17T09:06:17;5.77;;;1.80;;
30247;SDS011;17063;50.892;4.702;2022-07-17T09:08:45;4.00;;;1.60;;
30247;SDS011;17063;50.892;4.702;2022-07-17T09:11:12;6.27;;;1.87;;
30247;SDS011;17063;50.892;4.702;2022-07-17T09:13:42;2.43;;;1.20;;
30247;SDS011;17063;50.892;4.702;2022-07-17T09:16:12;6.50;;;1.40;;
30247;SDS011;17063;50.892;4.702;2022-07-17T09:18:46;3.63;;;1.40;;
30247;SDS011;17063;50.892;4.702;2022-07-17T09:21:18;6.27;;;1.73;;
30247;SDS011;17063;50.892;4.702;2022-07-17T09:23:56;5.27;;;1.70;;
30247;SDS011;17063;50.892;4.702;2022-07-17T09:26:26;5.93;;;1.70;;
30247;SDS011;17063;50.892;4.702;2022-07-17T09:28:54;5.73;;;1.90;;
30247;SDS011;17063;50.892;4.702;2022-07-17T09:31:28;5.33;;;1.60;;
30247;SDS011;17063;50.892;4.702;2022-07-17T09:33:56;3.30;;;1.57;;
30247;SDS011;17063;50.892;4.702;2022-07-17T09:36:23;4.20;;;1.40;;
30247;SDS011;17063;50.892;4.702;2022-07-17T09:38:55;5.17;;;1.70;;
30247;SDS011;17063;50.892;4.702;2022-07-17T09:41:23;4.37;;;1.83;;
30247;SDS011;17063;50.892;4.702;2022-07-17T09:43:53;3.67;;;1.43;;
30247;SDS011;17063;50.892;4.702;2022-07-17T09:46:23;6.17;;;1.90;;
30247;SDS011;17063;50.892;4.702;2022-07-17T09:48:56;5.47;;;1.50;;
30247;SDS011;17063;50.892;4.702;2022-07-17T09:51:33;6.53;;;1.70;;
30247;SDS011;17063;50.892;4.702;2022-07-17T09:54:02;4.37;;;1.43;;
30247;SDS011;17063;50.892;4.702;2022-07-17T09:56:32;4.43;;;1.70;;
30247;SDS011;17063;50.892;4.702;2022-07-17T09:59:02;6.17;;;1.50;;
30247;SDS011;17063;50.892;4.702;2022-07-17T10:01:30;6.57;;;1.53;;
30247;SDS011;17063;50.892;4.702;2022-07-17T10:03:59;3.33;;;1.47;;
30247;SDS011;17063;50.892;4.702;2022-07-17T10:06:26;3.40;;;1.47;;
30247;SDS011;17063;50.892;4.702;2022-07-17T10:08:54;3.17;;;1.67;;
30247;SDS011;17063;50.892;4.702;2022-07-17T10:11:22;2.03;;;1.40;;
30247;SDS011;17063;50.892;4.702;2022-07-17T10:13:51;10.73;;;1.60;;
30247;SDS011;17063;50.892;4.702;2022-07-17T10:16:27;4.93;;;1.33;;
30247;SDS011;17063;50.892;4.702;2022-07-17T10:18:56;3.33;;;1.40;;
30247;SDS011;17063;50.892;4.702;2022-07-17T10:21:25;2.80;;;1.40;;
30247;SDS011;17063;50.892;4.702;2022-07-17T10:26:33;6.13;;;1.63;;
30247;SDS011;17063;50.892;4.702;2022-07-17T10:29:01;4.33;;;1.40;;
30247;SDS011;17063;50.892;4.702;2022-07-17T10:31:29;6.20;;;1.90;;
30247;SDS011;17063;50.892;4.702;2022-07-17T10:34:01;5.63;;;2.17;;
30247;SDS011;17063;50.892;4.702;2022-07-17T10:39:24;4.40;;;1.50;;
30247;SDS011;17063;50.892;4.702;2022-07-17T10:41:58;7.57;;;1.80;;
30247;SDS011;17063;50.892;4.702;2022-07-17T10:44:31;2.43;;;1.30;;
30247;SDS011;17063;50.892;4.702;2022-07-17T10:47:01;6.27;;;1.43;;
30247;SDS011;17063;50.892;4.702;2022-07-17T10:49:27;2.73;;;1.63;;
30247;SDS011;17063;50.892;4.702;2022-07-17T10:51:54;3.97;;;1.50;;
30247;SDS011;17063;50.892;4.702;2022-07-17T10:54:32;5.10;;;1.70;;
30247;SDS011;17063;50.892;4.702;2022-07-17T10:57:01;4.60;;;1.93;;
30247;SDS011;17063;50.892;4.702;2022-07-17T10:59:29;5.27;;;1.97;;
30247;SDS011;17063;50.892;4.702;2022-07-17T11:01:56;4.17;;;1.40;;
30247;SDS011;17063;50.892;4.702;2022-07-17T11:04:24;1.83;;;1.37;;
30247;SDS011;17063;50.892;4.702;2022-07-17T11:06:50;7.90;;;1.60;;
30247;SDS011;17063;50.892;4.702;2022-07-17T11:09:18;5.07;;;1.80;;
30247;SDS011;17063;50.892;4.702;2022-07-17T11:11:48;5.40;;;1.50;;
30247;SDS011;17063;50.892;4.702;2022-07-17T11:14:26;5.00;;;1.57;;
30247;SDS011;17063;50.892;4.702;2022-07-17T11:16:55;4.00;;;1.47;;
30247;SDS011;17063;50.892;4.702;2022-07-17T11:22:06;4.87;;;1.37;;
30247;SDS011;17063;50.892;4.702;2022-07-17T11:24:41;3.50;;;1.43;;
30247;SDS011;17063;50.892;4.702;2022-07-17T11:27:18;4.13;;;1.10;;
30247;SDS011;17063;50.892;4.702;2022-07-17T11:29:45;3.33;;;1.40;;
30247;SDS011;17063;50.892;4.702;2022-07-17T11:32:12;6.63;;;1.60;;
30247;SDS011;17063;50.892;4.702;2022-07-17T11:34:39;2.47;;;1.40;;
30247;SDS011;17063;50.892;4.702;2022-07-17T11:37:07;4.03;;;1.50;;
30247;SDS011;17063;50.892;4.702;2022-07-17T11:42:16;4.63;;;1.40;;
30247;SDS011;17063;50.892;4.702;2022-07-17T11:44:44;4.40;;;1.60;;
30247;SDS011;17063;50.892;4.702;2022-07-17T11:47:12;3.30;;;1.33;;
30247;SDS011;17063;50.892;4.702;2022-07-17T11:49:45;2.60;;;1.43;;
30247;SDS011;17063;50.892;4.702;2022-07-17T11:52:17;4.00;;;1.70;;
30247;SDS011;17063;50.892;4.702;2022-07-17T11:54:46;2.97;;;1.50;;
30247;SDS011;17063;50.892;4.702;2022-07-17T11:57:14;2.13;;;1.30;;
30247;SDS011;17063;50.892;4.702;2022-07-17T11:59:41;3.50;;;1.50;;
30247;SDS011;17063;50.892;4.702;2022-07-17T12:02:09;4.73;;;1.50;;
30247;SDS011;17063;50.892;4.702;2022-07-17T12:07:24;3.47;;;1.57;;
30247;SDS011;17063;50.892;4.702;2022-07-17T12:09:53;3.57;;;1.40;;
30247;SDS011;17063;50.892;4.702;2022-07-17T12:12:21;3.77;;;1.37;;
30247;SDS011;17063;50.892;4.702;2022-07-17T12:14:56;8.20;;;1.80;;
30247;SDS011;17063;50.892;4.702;2022-07-17T12:17:25;3.67;;;1.60;;
30247;SDS011;17063;50.892;4.702;2022-07-17T12:20:04;1.83;;;1.20;;
30247;SDS011;17063;50.892;4.702;2022-07-17T12:22:48;2.70;;;1.70;;
30247;SDS011;17063;50.892;4.702;2022-07-17T12:25:22;1.60;;;1.30;;
30247;SDS011;17063;50.892;4.702;2022-07-17T12:27:50;2.00;;;1.30;;
30247;SDS011;17063;50.892;4.702;2022-07-17T12:30:18;1.90;;;1.30;;
30247;SDS011;17063;50.892;4.702;2022-07-17T12:32:45;2.47;;;1.40;;
30247;SDS011;17063;50.892;4.702;2022-07-17T12:35:14;3.00;;;1.47;;
30247;SDS011;17063;50.892;4.702;2022-07-17T12:37:42;2.83;;;1.40;;
30247;SDS011;17063;50.892;4.702;2022-07-17T12:40:09;2.53;;;1.57;;
30247;SDS011;17063;50.892;4.702;2022-07-17T12:42:42;3.77;;;1.60;;
30247;SDS011;17063;50.892;4.702;2022-07-17T12:45:09;1.53;;;1.33;;
30247;SDS011;17063;50.892;4.702;2022-07-17T12:47:37;3.47;;;1.30;;
30247;SDS011;17063;50.892;4.702;2022-07-17T12:50:04;3.00;;;1.30;;
30247;SDS011;17063;50.892;4.702;2022-07-17T12:52:31;1.50;;;1.40;;
30247;SDS011;17063;50.892;4.702;2022-07-17T12:54:58;4.97;;;1.27;;
30247;SDS011;17063;50.892;4.702;2022-07-17T12:57:26;4.13;;;1.57;;
30247;SDS011;17063;50.892;4.702;2022-07-17T12:59:53;3.30;;;1.50;;
30247;SDS011;17063;50.892;4.702;2022-07-17T13:02:20;1.77;;;1.30;;
30247;SDS011;17063;50.892;4.702;2022-07-17T13:04:46;1.60;;;1.43;;
30247;SDS011;17063;50.892;4.702;2022-07-17T13:07:13;1.60;;;1.30;;
30247;SDS011;17063;50.892;4.702;2022-07-17T13:09:40;1.60;;;1.50;;
30247;SDS011;17063;50.892;4.702;2022-07-17T13:12:07;4.03;;;1.30;;
30247;SDS011;17063;50.892;4.702;2022-07-17T13:14:34;1.23;;;1.13;;
30247;SDS011;17063;50.892;4.702;2022-07-17T13:17:01;4.17;;;1.53;;
30247;SDS011;17063;50.892;4.702;2022-07-17T13:19:28;2.10;;;1.20;;
30247;SDS011;17063;50.892;4.702;2022-07-17T13:21:55;4.47;;;1.60;;
30247;SDS011;17063;50.892;4.702;2022-07-17T13:24:21;4.93;;;1.40;;
30247;SDS011;17063;50.892;4.702;2022-07-17T13:26:48;2.60;;;1.50;;
30247;SDS011;17063;50.892;4.702;2022-07-17T13:29:15;5.27;;;1.17;;
30247;SDS011;17063;50.892;4.702;2022-07-17T13:31:42;1.33;;;1.23;;
30247;SDS011;17063;50.892;4.702;2022-07-17T13:34:09;2.73;;;1.50;;
30247;SDS011;17063;50.892;4.702;2022-07-17T13:36:36;1.90;;;1.17;;
30247;SDS011;17063;50.892;4.702;2022-07-17T13:39:03;1.60;;;1.30;;
30247;SDS011;17063;50.892;4.702;2022-07-17T13:41:32;5.43;;;1.90;;
30247;SDS011;17063;50.892;4.702;2022-07-17T13:43:59;1.77;;;1.23;;
30247;SDS011;17063;50.892;4.702;2022-07-17T13:46:34;2.20;;;1.30;;
30247;SDS011;17063;50.892;4.702;2022-07-17T13:49:01;3.57;;;1.50;;
30247;SDS011;17063;50.892;4.702;2022-07-17T13:51:28;1.30;;;1.20;;
30247;SDS011;17063;50.892;4.702;2022-07-17T13:53:59;1.30;;;1.20;;
30247;SDS011;17063;50.892;4.702;2022-07-17T13:56:25;1.43;;;1.20;;
30247;SDS011;17063;50.892;4.702;2022-07-17T13:58:53;1.97;;;1.40;;
30247;SDS011;17063;50.892;4.702;2022-07-17T14:01:19;1.93;;;1.50;;
30247;SDS011;17063;50.892;4.702;2022-07-17T14:03:48;2.63;;;1.40;;
30247;SDS011;17063;50.892;4.702;2022-07-17T14:06:16;1.87;;;1.27;;
30247;SDS011;17063;50.892;4.702;2022-07-17T14:08:43;1.10;;;1.00;;
30247;SDS011;17063;50.892;4.702;2022-07-17T14:11:11;1.83;;;1.27;;
30247;SDS011;17063;50.892;4.702;2022-07-17T14:13:38;3.20;;;1.40;;
30247;SDS011;17063;50.892;4.702;2022-07-17T14:16:12;2.17;;;1.50;;
30247;SDS011;17063;50.892;4.702;2022-07-17T14:18:38;1.67;;;1.40;;
30247;SDS011;17063;50.892;4.702;2022-07-17T14:21:25;1.30;;;1.20;;
30247;SDS011;17063;50.892;4.702;2022-07-17T14:23:53;2.20;;;1.17;;
30247;SDS011;17063;50.892;4.702;2022-07-17T14:26:19;2.30;;;1.03;;
30247;SDS011;17063;50.892;4.702;2022-07-17T14:28:47;2.10;;;1.33;;
30247;SDS011;17063;50.892;4.702;2022-07-17T14:31:13;1.40;;;1.27;;
30247;SDS011;17063;50.892;4.702;2022-07-17T14:33:40;2.67;;;1.30;;
30247;SDS011;17063;50.892;4.702;2022-07-17T14:36:08;2.20;;;1.13;;
30247;SDS011;17063;50.892;4.702;2022-07-17T14:38:35;3.60;;;1.47;;
30247;SDS011;17063;50.892;4.702;2022-07-17T14:41:03;2.60;;;1.43;;
30247;SDS011;17063;50.892;4.702;2022-07-17T14:43:29;2.10;;;1.17;;
30247;SDS011;17063;50.892;4.702;2022-07-17T14:45:56;1.20;;;1.10;;
30247;SDS011;17063;50.892;4.702;2022-07-17T14:48:23;1.77;;;1.23;;
30247;SDS011;17063;50.892;4.702;2022-07-17T14:50:51;2.30;;;1.10;;
30247;SDS011;17063;50.892;4.702;2022-07-17T14:53:18;1.40;;;1.27;;
30247;SDS011;17063;50.892;4.702;2022-07-17T14:55:45;1.70;;;1.50;;
30247;SDS011;17063;50.892;4.702;2022-07-17T14:58:12;2.07;;;1.10;;
30247;SDS011;17063;50.892;4.702;2022-07-17T15:00:38;1.73;;;1.27;;
30247;SDS011;17063;50.892;4.702;2022-07-17T15:03:05;1.77;;;1.10;;
30247;SDS011;17063;50.892;4.702;2022-07-17T15:05:34;3.13;;;1.17;;
30247;SDS011;17063;50.892;4.702;2022-07-17T15:08:01;1.30;;;1.20;;